createdAt,value
2022-10-05T00:01:34.740Z,98501.81
2022-10-05T00:04:23.242Z,98493.88
2022-10-05T00:06:59.364Z,98490.66
2022-10-05T00:09:26.070Z,98491.72
2022-10-05T00:11:52.546Z,98486.91
2022-10-05T00:14:23.096Z,98482.16
2022-10-05T00:16:50.166Z,98483.16
2022-10-05T00:19:44.371Z,98477.25
2022-10-05T00:22:16.316Z,98474.03
2022-10-05T00:24:51.817Z,98475.19
2022-10-05T00:27:24.998Z,98480.75
2022-10-05T00:29:59.697Z,98478.56
2022-10-05T00:32:27.015Z,98485.38
2022-10-05T00:34:57.205Z,98476.13
2022-10-05T00:37:23.981Z,98463.84
2022-10-05T00:39:50.539Z,98468.88
2022-10-05T00:42:27.567Z,98468.09
2022-10-05T00:44:56.802Z,98472.63
2022-10-05T00:47:41.623Z,98474.38
2022-10-05T00:50:25.433Z,98471.31
2022-10-05T00:53:05.714Z,98462.34
2022-10-05T00:55:57.587Z,98477.41
2022-10-05T00:59:12.042Z,98474.47
2022-10-05T01:01:50.305Z,98469.56
2022-10-05T01:04:28.562Z,98469.72
2022-10-05T01:06:55.265Z,98473.28
2022-10-05T01:10:03.067Z,98473.75
2022-10-05T01:12:40.229Z,98476.03
2022-10-05T01:15:32.026Z,98473.22
2022-10-05T01:18:26.015Z,98472.03
2022-10-05T01:21:09.022Z,98466.41
2022-10-05T01:23:57.014Z,98468.91
2022-10-05T01:27:00.623Z,98463.97
2022-10-05T01:29:48.300Z,98459.84
2022-10-05T01:32:26.220Z,98463.84
2022-10-05T01:35:43.893Z,98461.00
2022-10-05T01:38:22.831Z,98457.28
2022-10-05T01:41:19.675Z,98464.91
2022-10-05T01:43:58.485Z,98469.88
2022-10-05T01:46:39.299Z,98459.50
2022-10-05T01:49:37.022Z,98460.66
2022-10-05T01:52:24.938Z,98460.13
2022-10-05T01:55:19.513Z,98457.34
2022-10-05T01:58:16.734Z,98465.00
2022-10-05T02:01:09.752Z,98451.81
2022-10-05T02:03:43.182Z,98446.78
2022-10-05T02:06:34.203Z,98449.94
2022-10-05T02:09:20.303Z,98451.06
2022-10-05T02:11:52.463Z,98455.22
2022-10-05T02:14:24.585Z,98447.94
2022-10-05T02:16:57.399Z,98441.56
2022-10-05T02:19:36.003Z,98442.56
2022-10-05T02:22:07.282Z,98437.94
2022-10-05T02:24:43.496Z,98438.91
2022-10-05T02:27:15.329Z,98431.59
2022-10-05T02:29:47.184Z,98430.91
2022-10-05T02:32:22.694Z,98433.03
2022-10-05T02:34:49.957Z,98440.88
2022-10-05T02:37:46.548Z,98436.16
2022-10-05T02:40:45.068Z,98442.50
2022-10-05T02:43:13.620Z,98436.34
2022-10-05T02:45:50.893Z,98436.75
2022-10-05T02:48:46.865Z,98445.31
2022-10-05T02:51:58.294Z,98435.53
2022-10-05T02:54:43.447Z,98438.59
2022-10-05T02:57:31.243Z,98433.28
2022-10-05T03:00:15.142Z,98434.50
2022-10-05T03:02:48.800Z,98435.53
2022-10-05T03:05:46.060Z,98437.00
2022-10-05T03:08:24.986Z,98443.63
2022-10-05T03:11:41.315Z,98438.59
2022-10-05T03:14:26.575Z,98441.16
2022-10-05T03:17:14.416Z,98440.03
2022-10-05T03:20:04.101Z,98432.59
2022-10-05T03:22:53.334Z,98433.03
2022-10-05T03:25:45.392Z,98426.50
2022-10-05T03:28:27.689Z,98435.47
2022-10-05T03:31:41.846Z,98437.13
2022-10-05T03:34:18.503Z,98427.97
2022-10-05T03:37:10.494Z,98443.38
2022-10-05T03:39:47.205Z,98444.09
2022-10-05T03:42:37.853Z,98444.09
2022-10-05T03:45:08.864Z,98453.31
2022-10-05T03:48:01.090Z,98451.31
2022-10-05T03:50:42.490Z,98456.97
2022-10-05T03:53:19.889Z,98454.59
2022-10-05T03:55:53.677Z,98463.84
2022-10-05T03:58:28.101Z,98466.88
2022-10-05T04:01:00.862Z,98465.34
2022-10-05T04:03:36.685Z,98460.72
2022-10-05T04:06:24.469Z,98463.06
2022-10-05T04:09:00.245Z,98460.59
2022-10-05T04:11:31.312Z,98460.59
2022-10-05T04:14:11.153Z,98462.94
2022-10-05T04:16:45.880Z,98458.34
2022-10-05T04:19:24.614Z,98466.81
2022-10-05T04:22:16.276Z,98457.56
2022-10-05T04:24:56.178Z,98453.72
2022-10-05T04:27:29.644Z,98452.50
2022-10-05T04:30:05.264Z,98458.56
2022-10-05T04:32:44.134Z,98448.91
2022-10-05T04:35:45.680Z,98454.66
2022-10-05T04:38:39.467Z,98458.16
2022-10-05T04:41:29.295Z,98460.41
2022-10-05T04:44:09.655Z,98454.56
2022-10-05T04:46:48.574Z,98451.88
2022-10-05T04:50:11.497Z,98452.66
2022-10-05T04:52:53.095Z,98449.59
2022-10-05T04:55:27.188Z,98451.53
2022-10-05T04:58:12.011Z,98444.13
2022-10-05T05:01:08.449Z,98450.31
2022-10-05T05:03:41.231Z,98451.78
2022-10-05T05:06:17.351Z,98447.94
2022-10-05T05:09:08.995Z,98448.72
2022-10-05T05:11:59.419Z,98440.97
2022-10-05T05:14:40.982Z,98446.47
2022-10-05T05:17:32.858Z,98445.69
2022-10-05T05:20:43.875Z,98447.19
2022-10-05T05:23:19.479Z,98438.88
2022-10-05T05:26:25.162Z,98445.25
2022-10-05T05:28:59.816Z,98441.56
2022-10-05T05:31:46.513Z,98449.56
2022-10-05T05:34:58.669Z,98448.94
2022-10-05T05:38:13.213Z,98453.03
2022-10-05T05:40:55.732Z,98447.09
2022-10-05T05:43:32.284Z,98447.34
2022-10-05T05:46:51.556Z,98452.31
2022-10-05T05:49:27.421Z,98446.91
2022-10-05T05:52:04.548Z,98455.44
2022-10-05T05:54:37.870Z,98457.47
2022-10-05T05:57:34.240Z,98465.28
2022-10-05T06:00:05.660Z,98465.81
2022-10-05T06:03:02.563Z,98467.47
2022-10-05T06:05:38.154Z,98464.47
2022-10-05T06:08:18.609Z,98466.53
2022-10-05T06:11:00.512Z,98464.31
2022-10-05T06:13:33.851Z,98461.00
2022-10-05T06:16:15.110Z,98470.41
2022-10-05T06:18:45.750Z,98465.34
2022-10-05T06:21:24.260Z,98468.88
2022-10-05T06:23:56.682Z,98461.00
2022-10-05T06:27:00.833Z,98462.03
2022-10-05T06:29:44.672Z,98469.16
2022-10-05T06:32:31.075Z,98483.03
2022-10-05T06:35:06.934Z,98486.31
2022-10-05T06:37:35.595Z,98495.03
2022-10-05T06:40:09.612Z,98488.81
2022-10-05T06:43:21.217Z,98496.72
2022-10-05T06:46:04.134Z,98497.03
2022-10-05T06:49:04.364Z,98496.16
2022-10-05T06:51:38.687Z,98497.66
2022-10-05T06:54:23.103Z,98502.34
2022-10-05T06:57:06.659Z,98493.00
2022-10-05T06:59:59.063Z,98488.66
2022-10-05T07:02:32.734Z,98495.22
2022-10-05T07:04:59.422Z,98496.88
2022-10-05T07:07:55.601Z,98509.34
2022-10-05T07:10:33.936Z,98504.63
2022-10-05T07:13:06.632Z,98508.53
2022-10-05T07:15:47.371Z,98496.00
2022-10-05T07:18:39.880Z,98506.47
2022-10-05T07:21:06.585Z,98498.84
2022-10-05T07:23:46.059Z,98496.19
2022-10-05T07:26:25.064Z,98497.63
2022-10-05T07:29:17.271Z,98508.91
2022-10-05T07:31:55.316Z,98504.31
2022-10-05T07:34:32.594Z,98506.72
2022-10-05T07:37:21.900Z,98501.63
2022-10-05T07:40:11.266Z,98497.25
2022-10-05T07:42:50.477Z,98503.81
2022-10-05T07:45:38.245Z,98497.41
2022-10-05T07:48:16.389Z,98506.97
2022-10-05T07:50:52.079Z,98501.72
2022-10-05T07:53:28.677Z,98501.69
2022-10-05T07:56:03.112Z,98506.72
2022-10-05T07:58:37.979Z,98504.19
2022-10-05T08:01:19.936Z,98500.59
2022-10-05T08:04:12.907Z,98502.13
2022-10-05T08:06:58.152Z,98499.41
2022-10-05T08:09:36.892Z,98507.97
2022-10-05T08:12:18.511Z,98502.25
2022-10-05T08:15:13.921Z,98502.38
2022-10-05T08:18:28.105Z,98504.06
2022-10-05T08:20:57.888Z,98498.63
2022-10-05T08:23:48.435Z,98509.38
2022-10-05T08:26:54.619Z,98497.19
2022-10-05T08:29:34.772Z,98500.59
2022-10-05T08:32:12.545Z,98498.69
2022-10-05T08:35:04.813Z,98509.03
2022-10-05T08:37:37.293Z,98501.72
2022-10-05T08:40:19.007Z,98500.03
2022-10-05T08:43:08.334Z,98500.69
2022-10-05T08:46:02.749Z,98503.72
2022-10-05T08:49:10.031Z,98501.38
2022-10-05T08:51:54.544Z,98508.75
2022-10-05T08:54:52.261Z,98511.84
2022-10-05T08:57:33.694Z,98501.66
2022-10-05T09:00:25.635Z,98500.53
2022-10-05T09:03:16.400Z,98502.31
2022-10-05T09:06:04.765Z,98504.28
2022-10-05T09:09:08.453Z,98494.78
2022-10-05T09:11:44.889Z,98494.72
2022-10-05T09:15:01.322Z,98496.88
2022-10-05T09:18:11.219Z,98492.13
2022-10-05T09:21:00.696Z,98500.81
2022-10-05T09:23:40.367Z,98486.81
2022-10-05T09:26:34.390Z,98492.25
2022-10-05T09:29:38.984Z,98493.97
2022-10-05T09:32:32.507Z,98482.47
2022-10-05T09:35:17.580Z,98491.47
2022-10-05T09:38:04.810Z,98488.03
2022-10-05T09:40:47.711Z,98481.16
2022-10-05T09:43:43.626Z,98479.75
2022-10-05T09:46:43.078Z,98492.22
2022-10-05T09:49:37.553Z,98479.88
2022-10-05T09:52:28.001Z,98483.59
2022-10-05T09:55:01.708Z,98478.41
2022-10-05T09:57:52.392Z,98470.59
2022-10-05T10:00:55.629Z,98472.72
2022-10-05T10:04:07.073Z,98478.53
2022-10-05T10:06:46.667Z,98464.22
2022-10-05T10:09:26.997Z,98467.50
2022-10-05T10:12:22.403Z,98463.53
2022-10-05T10:15:19.156Z,98459.88
2022-10-05T10:18:10.851Z,98460.47
2022-10-05T10:21:16.103Z,98458.94
2022-10-05T10:23:51.684Z,98461.06
2022-10-05T10:26:20.829Z,98458.50
2022-10-05T10:29:15.293Z,98462.00
2022-10-05T10:32:07.716Z,98458.13
2022-10-05T10:34:43.940Z,98458.03
2022-10-05T10:37:41.170Z,98456.69
2022-10-05T10:40:11.658Z,98454.06
2022-10-05T10:42:59.354Z,98449.22
2022-10-05T10:45:32.384Z,98454.63
2022-10-05T10:48:24.022Z,98450.78
2022-10-05T10:51:12.575Z,98449.22
2022-10-05T10:54:02.625Z,98445.03
2022-10-05T10:56:41.428Z,98444.06
2022-10-05T10:59:07.883Z,98446.09
2022-10-05T11:02:03.283Z,98449.66
2022-10-05T11:04:48.506Z,98451.81
2022-10-05T11:07:52.432Z,98448.88
2022-10-05T11:10:56.064Z,98438.84
2022-10-05T11:13:38.553Z,98437.94
2022-10-05T11:16:32.537Z,98421.50
2022-10-05T11:19:14.467Z,98435.31
2022-10-05T11:21:49.930Z,98430.94
2022-10-05T11:24:39.062Z,98425.44
2022-10-05T11:27:50.847Z,98428.09
2022-10-05T11:31:07.401Z,98423.41
2022-10-05T11:34:10.478Z,98411.59
2022-10-05T11:37:01.672Z,98415.81
2022-10-05T11:39:39.896Z,98408.97
2022-10-05T11:42:08.559Z,98403.09
2022-10-05T11:45:15.697Z,98403.91
2022-10-05T11:48:33.165Z,98403.63
2022-10-05T11:51:12.129Z,98405.03
2022-10-05T11:53:55.148Z,98404.56
2022-10-05T11:59:15.384Z,98402.25
2022-10-05T12:02:25.239Z,98395.06
2022-10-05T12:05:01.037Z,98390.41
2022-10-05T12:07:52.323Z,98389.44
2022-10-05T12:10:44.996Z,98386.94
2022-10-05T12:13:22.362Z,98377.28
2022-10-05T12:16:05.171Z,98380.78
2022-10-05T12:18:31.653Z,98384.69
2022-10-05T12:21:07.294Z,98377.44
2022-10-05T12:23:40.098Z,98376.56
2022-10-05T12:26:16.860Z,98375.25
2022-10-05T12:28:49.904Z,98371.97
2022-10-05T12:32:00.433Z,98369.75
2022-10-05T12:34:42.213Z,98368.00
2022-10-05T12:37:26.630Z,98367.53
2022-10-05T12:39:58.991Z,98373.88
2022-10-05T12:42:42.364Z,98364.47
2022-10-05T12:45:33.130Z,98366.81
2022-10-05T12:48:25.465Z,98369.59
2022-10-05T12:51:07.724Z,98368.47
2022-10-05T12:53:42.794Z,98369.13
2022-10-05T12:56:17.913Z,98363.91
2022-10-05T12:58:47.609Z,98361.28
2022-10-05T13:01:36.104Z,98357.91
2022-10-05T13:04:14.779Z,98356.94
2022-10-05T13:07:13.948Z,98358.22
2022-10-05T13:09:51.340Z,98354.34
2022-10-05T13:12:44.773Z,98358.66
2022-10-05T13:15:31.415Z,98348.66
2022-10-05T13:18:16.864Z,98353.69
2022-10-05T13:21:22.672Z,98346.56
2022-10-05T13:24:04.675Z,98349.72
2022-10-05T13:26:38.263Z,98348.31
2022-10-05T13:29:19.119Z,98351.72
2022-10-05T13:32:02.133Z,98342.78
2022-10-05T13:34:41.130Z,98347.59
2022-10-05T13:37:23.911Z,98344.78
2022-10-05T13:39:55.776Z,98344.38
